sensor_id;sensor_type;location;lat;lon;timestamp;temperature;humidity
14093;DHT22;7123;49.468;10.992;2022-08-20T00:00:41;21.70;99.90
14093;DHT22;7123;49.468;10.992;2022-08-20T00:03:17;21.70;99.90
14093;DHT22;7123;49.468;10.992;2022-08-20T00:05:48;21.70;99.90
14093;DHT22;7123;49.468;10.992;2022-08-20T00:08:22;21.70;99.90
14093;DHT22;7123;49.468;10.992;2022-08-20T00:10:50;21.70;99.90
14093;DHT22;7123;49.468;10.992;2022-08-20T00:13:35;21.70;99.90
14093;DHT22;7123;49.468;10.992;2022-08-20T00:16:03;21.70;99.90
14093;DHT22;7123;49.468;10.992;2022-08-20T00:18:30;21.70;99.90
14093;DHT22;7123;49.468;10.992;2022-08-20T00:20:57;21.70;99.90
14093;DHT22;7123;49.468;10.992;2022-08-20T00:23:24;21.70;99.90
14093;DHT22;7123;49.468;10.992;2022-08-20T00:25:51;21.60;99.90
14093;DHT22;7123;49.468;10.992;2022-08-20T00:28:18;21.60;99.90
14093;DHT22;7123;49.468;10.992;2022-08-20T00:30:46;21.60;99.90
14093;DHT22;7123;49.468;10.992;2022-08-20T00:33:16;21.60;99.90
14093;DHT22;7123;49.468;10.992;2022-08-20T00:35:47;21.60;99.90
14093;DHT22;7123;49.468;10.992;2022-08-20T00:38:15;21.60;99.90
14093;DHT22;7123;49.468;10.992;2022-08-20T00:40:51;21.60;99.90
14093;DHT22;7123;49.468;10.992;2022-08-20T00:46:04;21.60;99.90
14093;DHT22;7123;49.468;10.992;2022-08-20T00:48:33;21.60;99.90
14093;DHT22;7123;49.468;10.992;2022-08-20T00:51:28;21.60;99.90
14093;DHT22;7123;49.468;10.992;2022-08-20T00:54:13;21.60;99.90
14093;DHT22;7123;49.468;10.992;2022-08-20T00:56:43;21.60;99.90
14093;DHT22;7123;49.468;10.992;2022-08-20T00:59:15;21.60;99.90
14093;DHT22;7123;49.468;10.992;2022-08-20T01:01:44;21.60;99.90
14093;DHT22;7123;49.468;10.992;2022-08-20T01:04:21;21.60;99.90
14093;DHT22;7123;49.468;10.992;2022-08-20T01:06:48;21.60;99.90
14093;DHT22;7123;49.468;10.992;2022-08-20T01:09:14;21.60;99.90
14093;DHT22;7123;49.468;10.992;2022-08-20T01:11:41;21.70;99.90
14093;DHT22;7123;49.468;10.992;2022-08-20T01:14:11;21.60;99.90
14093;DHT22;7123;49.468;10.992;2022-08-20T01:16:49;21.70;99.90
14093;DHT22;7123;49.468;10.992;2022-08-20T01:19:19;21.60;99.90
14093;DHT22;7123;49.468;10.992;2022-08-20T01:21:57;21.60;99.90
14093;DHT22;7123;49.468;10.992;2022-08-20T01:24:36;21.60;99.90
14093;DHT22;7123;49.468;10.992;2022-08-20T01:27:04;21.60;99.90
14093;DHT22;7123;49.468;10.992;2022-08-20T01:29:36;21.60;99.90
14093;DHT22;7123;49.468;10.992;2022-08-20T01:32:04;21.60;99.90
14093;DHT22;7123;49.468;10.992;2022-08-20T01:34:31;21.50;99.90
14093;DHT22;7123;49.468;10.992;2022-08-20T01:36:59;21.50;99.90
14093;DHT22;7123;49.468;10.992;2022-08-20T01:39:32;21.50;99.90
14093;DHT22;7123;49.468;10.992;2022-08-20T01:42:16;21.60;99.90
14093;DHT22;7123;49.468;10.992;2022-08-20T01:44:45;21.50;99.90
14093;DHT22;7123;49.468;10.992;2022-08-20T01:47:20;21.50;99.90
14093;DHT22;7123;49.468;10.992;2022-08-20T01:49:52;21.50;99.90
14093;DHT22;7123;49.468;10.992;2022-08-20T01:52:39;21.50;99.90
14093;DHT22;7123;49.468;10.992;2022-08-20T01:55:08;21.50;99.90
14093;DHT22;7123;49.468;10.992;2022-08-20T01:57:36;21.50;99.90
14093;DHT22;7123;49.468;10.992;2022-08-20T02:00:11;21.50;99.90
14093;DHT22;7123;49.468;10.992;2022-08-20T02:02:45;21.50;99.90
14093;DHT22;7123;49.468;10.992;2022-08-20T02:05:12;21.50;99.90
14093;DHT22;7123;49.468;10.992;2022-08-20T02:07:39;21.50;99.90
14093;DHT22;7123;49.468;10.992;2022-08-20T02:10:08;21.50;99.90
14093;DHT22;7123;49.468;10.992;2022-08-20T02:12:36;21.50;99.90
14093;DHT22;7123;49.468;10.992;2022-08-20T02:15:03;21.50;99.90
14093;DHT22;7123;49.468;10.992;2022-08-20T02:17:30;21.50;99.90
14093;DHT22;7123;49.468;10.992;2022-08-20T02:20:00;21.50;99.90
14093;DHT22;7123;49.468;10.992;2022-08-20T02:25:16;21.50;99.90
14093;DHT22;7123;49.468;10.992;2022-08-20T02:27:45;21.50;99.90
14093;DHT22;7123;49.468;10.992;2022-08-20T02:30:23;21.50;99.90
14093;DHT22;7123;49.468;10.992;2022-08-20T02:32:54;21.50;99.90
14093;DHT22;7123;49.468;10.992;2022-08-20T02:35:22;21.50;99.90
14093;DHT22;7123;49.468;10.992;2022-08-20T02:37:50;21.50;99.90
14093;DHT22;7123;49.468;10.992;2022-08-20T02:40:19;21.50;99.90
14093;DHT22;7123;49.468;10.992;2022-08-20T02:42:58;21.50;99.90
14093;DHT22;7123;49.468;10.992;2022-08-20T02:45:25;21.40;99.90
14093;DHT22;7123;49.468;10.992;2022-08-20T02:47:51;21.50;99.90
14093;DHT22;7123;49.468;10.992;2022-08-20T02:50:21;21.50;99.90
14093;DHT22;7123;49.468;10.992;2022-08-20T02:52:49;21.50;99.90
14093;DHT22;7123;49.468;10.992;2022-08-20T02:55:17;21.50;99.90
14093;DHT22;7123;49.468;10.992;2022-08-20T02:57:58;21.50;99.90
14093;DHT22;7123;49.468;10.992;2022-08-20T03:00:27;21.50;99.90
14093;DHT22;7123;49.468;10.992;2022-08-20T03:02:54;21.50;99.90
14093;DHT22;7123;49.468;10.992;2022-08-20T03:05:21;21.40;99.90
14093;DHT22;7123;49.468;10.992;2022-08-20T03:07:50;21.50;99.90
14093;DHT22;7123;49.468;10.992;2022-08-20T03:10:28;21.40;99.90
14093;DHT22;7123;49.468;10.992;2022-08-20T03:12:55;21.40;99.90
14093;DHT22;7123;49.468;10.992;2022-08-20T03:15:22;21.40;99.90
14093;DHT22;7123;49.468;10.992;2022-08-20T03:17:49;21.40;99.90
14093;DHT22;7123;49.468;10.992;2022-08-20T03:20:16;21.40;99.90
14093;DHT22;7123;49.468;10.992;2022-08-20T03:22:47;21.40;99.90
14093;DHT22;7123;49.468;10.992;2022-08-20T03:25:17;21.40;99.90
14093;DHT22;7123;49.468;10.992;2022-08-20T03:27:44;21.30;99.90
14093;DHT22;7123;49.468;10.992;2022-08-20T03:30:19;21.30;99.90
14093;DHT22;7123;49.468;10.992;2022-08-20T03:32:46;21.30;99.90
14093;DHT22;7123;49.468;10.992;2022-08-20T03:35:14;21.30;99.90
14093;DHT22;7123;49.468;10.992;2022-08-20T03:37:42;21.30;99.90
14093;DHT22;7123;49.468;10.992;2022-08-20T03:40:18;21.30;99.90
14093;DHT22;7123;49.468;10.992;2022-08-20T03:42:45;21.30;99.90
14093;DHT22;7123;49.468;10.992;2022-08-20T03:45:12;21.40;99.90
14093;DHT22;7123;49.468;10.992;2022-08-20T03:47:45;21.40;99.90
14093;DHT22;7123;49.468;10.992;2022-08-20T03:50:12;21.40;99.90
14093;DHT22;7123;49.468;10.992;2022-08-20T03:52:50;21.40;99.90
14093;DHT22;7123;49.468;10.992;2022-08-20T03:55:17;21.40;99.90
14093;DHT22;7123;49.468;10.992;2022-08-20T03:57:47;21.40;99.90
14093;DHT22;7123;49.468;10.992;2022-08-20T04:00:18;21.40;99.90
14093;DHT22;7123;49.468;10.992;2022-08-20T04:02:46;21.40;99.90
14093;DHT22;7123;49.468;10.992;2022-08-20T04:05:13;21.40;99.90
14093;DHT22;7123;49.468;10.992;2022-08-20T04:07:40;21.40;99.90
14093;DHT22;7123;49.468;10.992;2022-08-20T04:10:10;21.40;99.90
14093;DHT22;7123;49.468;10.992;2022-08-20T04:12:37;21.40;99.90
14093;DHT22;7123;49.468;10.992;2022-08-20T04:15:15;21.40;99.90
14093;DHT22;7123;49.468;10.992;2022-08-20T04:17:46;21.40;99.90
14093;DHT22;7123;49.468;10.992;2022-08-20T04:20:17;21.40;99.90
14093;DHT22;7123;49.468;10.992;2022-08-20T04:22:54;21.40;99.90
14093;DHT22;7123;49.468;10.992;2022-08-20T04:25:28;21.40;99.90
14093;DHT22;7123;49.468;10.992;2022-08-20T04:28:04;21.40;99.90
14093;DHT22;7123;49.468;10.992;2022-08-20T04:30:32;21.40;99.90
14093;DHT22;7123;49.468;10.992;2022-08-20T04:32:59;21.40;99.90
14093;DHT22;7123;49.468;10.992;2022-08-20T04:35:27;21.40;99.90
14093;DHT22;7123;49.468;10.992;2022-08-20T04:38:02;21.40;99.90
14093;DHT22;7123;49.468;10.992;2022-08-20T04:40:30;21.40;99.90
14093;DHT22;7123;49.468;10.992;2022-08-20T04:43:15;21.40;99.90
14093;DHT22;7123;49.468;10.992;2022-08-20T04:45:42;21.40;99.90
14093;DHT22;7123;49.468;10.992;2022-08-20T04:48:09;21.40;99.90
14093;DHT22;7123;49.468;10.992;2022-08-20T04:50:42;21.50;99.90
14093;DHT22;7123;49.468;10.992;2022-08-20T04:53:11;21.50;99.90
14093;DHT22;7123;49.468;10.992;2022-08-20T04:55:39;21.50;99.90
14093;DHT22;7123;49.468;10.992;2022-08-20T04:58:16;21.50;99.90
14093;DHT22;7123;49.468;10.992;2022-08-20T05:00:48;21.40;99.90
14093;DHT22;7123;49.468;10.992;2022-08-20T05:03:16;21.40;99.90
14093;DHT22;7123;49.468;10.992;2022-08-20T05:05:43;21.40;99.90
14093;DHT22;7123;49.468;10.992;2022-08-20T05:08:14;21.40;99.90
14093;DHT22;7123;49.468;10.992;2022-08-20T05:10:46;21.50;99.90
14093;DHT22;7123;49.468;10.992;2022-08-20T05:13:12;21.40;99.90
14093;DHT22;7123;49.468;10.992;2022-08-20T05:15:39;21.40;99.90
14093;DHT22;7123;49.468;10.992;2022-08-20T05:18:07;21.40;99.90
14093;DHT22;7123;49.468;10.992;2022-08-20T05:20:36;21.40;99.90
14093;DHT22;7123;49.468;10.992;2022-08-20T05:23:08;21.40;99.90
14093;DHT22;7123;49.468;10.992;2022-08-20T05:25:35;21.40;99.90
14093;DHT22;7123;49.468;10.992;2022-08-20T05:28:09;21.40;99.90
14093;DHT22;7123;49.468;10.992;2022-08-20T05:30:39;21.40;99.90
14093;DHT22;7123;49.468;10.992;2022-08-20T05:33:07;21.40;99.90
14093;DHT22;7123;49.468;10.992;2022-08-20T05:35:37;21.40;99.90
14093;DHT22;7123;49.468;10.992;2022-08-20T05:38:07;21.40;99.90
14093;DHT22;7123;49.468;10.992;2022-08-20T05:40:34;21.50;99.90
14093;DHT22;7123;49.468;10.992;2022-08-20T05:43:01;21.50;99.90
14093;DHT22;7123;49.468;10.992;2022-08-20T05:45:30;21.50;99.90
14093;DHT22;7123;49.468;10.992;2022-08-20T05:47:58;21.50;99.90
14093;DHT22;7123;49.468;10.992;2022-08-20T05:50:28;21.50;99.90
14093;DHT22;7123;49.468;10.992;2022-08-20T05:52:55;21.50;99.90
14093;DHT22;7123;49.468;10.992;2022-08-20T05:55:22;21.50;99.90
14093;DHT22;7123;49.468;10.992;2022-08-20T05:57:49;21.50;99.90
14093;DHT22;7123;49.468;10.992;2022-08-20T06:00:23;21.40;99.90
14093;DHT22;7123;49.468;10.992;2022-08-20T06:02:49;21.30;99.90
14093;DHT22;7123;49.468;10.992;2022-08-20T06:05:35;21.10;99.90
14093;DHT22;7123;49.468;10.992;2022-08-20T06:08:04;20.90;99.90
14093;DHT22;7123;49.468;10.992;2022-08-20T06:10:34;20.70;99.90
14093;DHT22;7123;49.468;10.992;2022-08-20T06:13:02;20.60;99.90
14093;DHT22;7123;49.468;10.992;2022-08-20T06:15:30;20.50;99.90
14093;DHT22;7123;49.468;10.992;2022-08-20T06:17:57;20.50;99.90
14093;DHT22;7123;49.468;10.992;2022-08-20T06:20:25;20.50;99.90
14093;DHT22;7123;49.468;10.992;2022-08-20T06:22:54;20.60;99.90
14093;DHT22;7123;49.468;10.992;2022-08-20T06:25:21;20.50;99.90
14093;DHT22;7123;49.468;10.992;2022-08-20T06:27:48;20.40;99.90
14093;DHT22;7123;49.468;10.992;2022-08-20T06:30:15;20.30;99.90
14093;DHT22;7123;49.468;10.992;2022-08-20T06:32:43;20.20;99.90
14093;DHT22;7123;49.468;10.992;2022-08-20T06:35:10;20.10;99.90
14093;DHT22;7123;49.468;10.992;2022-08-20T06:37:38;20.10;99.90
14093;DHT22;7123;49.468;10.992;2022-08-20T06:40:17;20.00;99.90
14093;DHT22;7123;49.468;10.992;2022-08-20T06:42:45;19.90;99.90
14093;DHT22;7123;49.468;10.992;2022-08-20T06:45:20;19.90;99.90
14093;DHT22;7123;49.468;10.992;2022-08-20T06:47:50;20.10;99.90
14093;DHT22;7123;49.468;10.992;2022-08-20T06:50:21;20.30;99.90
14093;DHT22;7123;49.468;10.992;2022-08-20T06:52:49;20.50;99.90
14093;DHT22;7123;49.468;10.992;2022-08-20T06:55:19;20.70;99.90
14093;DHT22;7123;49.468;10.992;2022-08-20T06:57:45;20.80;99.90
14093;DHT22;7123;49.468;10.992;2022-08-20T07:00:18;20.90;99.90
14093;DHT22;7123;49.468;10.992;2022-08-20T07:02:45;20.80;99.90
14093;DHT22;7123;49.468;10.992;2022-08-20T07:05:13;20.60;99.90
14093;DHT22;7123;49.468;10.992;2022-08-20T07:07:48;20.40;99.90
14093;DHT22;7123;49.468;10.992;2022-08-20T07:10:17;20.20;99.90
14093;DHT22;7123;49.468;10.992;2022-08-20T07:12:45;20.10;99.90
14093;DHT22;7123;49.468;10.992;2022-08-20T07:15:13;20.00;99.90
14093;DHT22;7123;49.468;10.992;2022-08-20T07:17:40;19.90;99.90
14093;DHT22;7123;49.468;10.992;2022-08-20T07:20:10;19.80;99.90
14093;DHT22;7123;49.468;10.992;2022-08-20T07:22:38;19.80;99.90
14093;DHT22;7123;49.468;10.992;2022-08-20T07:25:06;19.90;99.90
14093;DHT22;7123;49.468;10.992;2022-08-20T07:27:34;19.90;99.90
14093;DHT22;7123;49.468;10.992;2022-08-20T07:30:01;19.90;99.90
14093;DHT22;7123;49.468;10.992;2022-08-20T07:32:47;19.90;99.90
14093;DHT22;7123;49.468;10.992;2022-08-20T07:35:16;19.90;99.90
14093;DHT22;7123;49.468;10.992;2022-08-20T07:37:46;20.00;99.90
14093;DHT22;7123;49.468;10.992;2022-08-20T07:40:26;20.10;99.90
14093;DHT22;7123;49.468;10.992;2022-08-20T07:42:55;20.30;99.90
14093;DHT22;7123;49.468;10.992;2022-08-20T07:45:22;20.40;99.90
14093;DHT22;7123;49.468;10.992;2022-08-20T07:47:50;20.50;99.90
14093;DHT22;7123;49.468;10.992;2022-08-20T07:50:22;20.60;99.90
14093;DHT22;7123;49.468;10.992;2022-08-20T07:52:50;20.50;99.90
14093;DHT22;7123;49.468;10.992;2022-08-20T07:55:20;20.50;99.90
14093;DHT22;7123;49.468;10.992;2022-08-20T07:57:48;20.50;99.90
14093;DHT22;7123;49.468;10.992;2022-08-20T08:00:21;20.30;99.90
14093;DHT22;7123;49.468;10.992;2022-08-20T08:02:48;20.30;99.90
14093;DHT22;7123;49.468;10.992;2022-08-20T08:05:16;20.30;99.90
14093;DHT22;7123;49.468;10.992;2022-08-20T08:07:45;20.20;99.90
14093;DHT22;7123;49.468;10.992;2022-08-20T08:10:19;20.20;99.90
14093;DHT22;7123;49.468;10.992;2022-08-20T08:12:51;20.20;99.90
14093;DHT22;7123;49.468;10.992;2022-08-20T08:15:22;20.20;99.90
14093;DHT22;7123;49.468;10.992;2022-08-20T08:17:50;20.20;99.90
14093;DHT22;7123;49.468;10.992;2022-08-20T08:20:18;20.30;99.90
14093;DHT22;7123;49.468;10.992;2022-08-20T08:22:46;20.40;99.90
14093;DHT22;7123;49.468;10.992;2022-08-20T08:25:14;20.50;99.90
14093;DHT22;7123;49.468;10.992;2022-08-20T08:27:43;20.70;99.90
14093;DHT22;7123;49.468;10.992;2022-08-20T08:30:13;20.70;99.90
14093;DHT22;7123;49.468;10.992;2022-08-20T08:32:40;20.80;99.90
14093;DHT22;7123;49.468;10.992;2022-08-20T08:35:25;20.80;99.90
14093;DHT22;7123;49.468;10.992;2022-08-20T08:37:52;20.90;99.90
14093;DHT22;7123;49.468;10.992;2022-08-20T08:40:22;21.00;99.90
14093;DHT22;7123;49.468;10.992;2022-08-20T08:42:52;21.00;99.90
14093;DHT22;7123;49.468;10.992;2022-08-20T08:45:28;21.00;99.90
14093;DHT22;7123;49.468;10.992;2022-08-20T08:47:56;21.10;99.90
14093;DHT22;7123;49.468;10.992;2022-08-20T08:50:28;21.10;99.90
14093;DHT22;7123;49.468;10.992;2022-08-20T08:53:50;21.20;99.90
14093;DHT22;7123;49.468;10.992;2022-08-20T08:56:27;21.30;99.90
14093;DHT22;7123;49.468;10.992;2022-08-20T08:59:00;21.40;99.90
14093;DHT22;7123;49.468;10.992;2022-08-20T09:01:32;21.50;99.90
14093;DHT22;7123;49.468;10.992;2022-08-20T09:04:20;21.60;99.90
14093;DHT22;7123;49.468;10.992;2022-08-20T09:06:50;21.60;99.90
14093;DHT22;7123;49.468;10.992;2022-08-20T09:09:24;21.70;99.90
14093;DHT22;7123;49.468;10.992;2022-08-20T09:12:08;21.80;99.90
14093;DHT22;7123;49.468;10.992;2022-08-20T09:14:36;21.70;99.90
14093;DHT22;7123;49.468;10.992;2022-08-20T09:17:03;21.70;99.90
14093;DHT22;7123;49.468;10.992;2022-08-20T09:19:30;21.70;99.90
14093;DHT22;7123;49.468;10.992;2022-08-20T09:21:57;21.80;99.90
14093;DHT22;7123;49.468;10.992;2022-08-20T09:24:24;21.80;99.90
14093;DHT22;7123;49.468;10.992;2022-08-20T09:26:51;21.80;99.90
14093;DHT22;7123;49.468;10.992;2022-08-20T09:29:17;21.70;99.90
14093;DHT22;7123;49.468;10.992;2022-08-20T09:31:44;21.60;99.90
14093;DHT22;7123;49.468;10.992;2022-08-20T09:34:12;21.60;99.90
14093;DHT22;7123;49.468;10.992;2022-08-20T09:36:39;21.60;99.90
14093;DHT22;7123;49.468;10.992;2022-08-20T09:39:05;21.70;99.90
14093;DHT22;7123;49.468;10.992;2022-08-20T09:41:32;21.80;99.90
14093;DHT22;7123;49.468;10.992;2022-08-20T09:44:00;21.80;99.90
14093;DHT22;7123;49.468;10.992;2022-08-20T09:46:27;21.80;99.90
14093;DHT22;7123;49.468;10.992;2022-08-20T09:48:54;21.80;99.90
14093;DHT22;7123;49.468;10.992;2022-08-20T09:51:21;21.90;99.90
14093;DHT22;7123;49.468;10.992;2022-08-20T09:53:48;21.90;99.90
14093;DHT22;7123;49.468;10.992;2022-08-20T09:56:16;21.90;99.90
14093;DHT22;7123;49.468;10.992;2022-08-20T09:58:49;22.00;99.90
14093;DHT22;7123;49.468;10.992;2022-08-20T10:01:18;22.00;99.90
14093;DHT22;7123;49.468;10.992;2022-08-20T10:03:46;22.10;99.90
14093;DHT22;7123;49.468;10.992;2022-08-20T10:06:15;22.10;99.90
14093;DHT22;7123;49.468;10.992;2022-08-20T10:08:43;22.10;99.90
14093;DHT22;7123;49.468;10.992;2022-08-20T10:11:10;22.10;99.90
14093;DHT22;7123;49.468;10.992;2022-08-20T10:13:37;22.10;99.90
14093;DHT22;7123;49.468;10.992;2022-08-20T10:16:04;22.00;99.90
14093;DHT22;7123;49.468;10.992;2022-08-20T10:18:31;22.00;99.90
14093;DHT22;7123;49.468;10.992;2022-08-20T10:20:57;22.00;99.90
14093;DHT22;7123;49.468;10.992;2022-08-20T10:23:24;22.00;99.90
14093;DHT22;7123;49.468;10.992;2022-08-20T10:25:51;22.00;99.90
14093;DHT22;7123;49.468;10.992;2022-08-20T10:28:18;22.00;99.90
14093;DHT22;7123;49.468;10.992;2022-08-20T10:30:45;22.10;99.90
14093;DHT22;7123;49.468;10.992;2022-08-20T10:33:12;22.20;99.90
14093;DHT22;7123;49.468;10.992;2022-08-20T10:35:39;22.30;99.90
14093;DHT22;7123;49.468;10.992;2022-08-20T10:38:06;22.40;99.90
14093;DHT22;7123;49.468;10.992;2022-08-20T10:40:33;22.40;99.90
14093;DHT22;7123;49.468;10.992;2022-08-20T10:43:00;22.40;99.90
14093;DHT22;7123;49.468;10.992;2022-08-20T10:45:27;22.40;99.90
14093;DHT22;7123;49.468;10.992;2022-08-20T10:47:54;22.50;99.90
14093;DHT22;7123;49.468;10.992;2022-08-20T10:50:25;22.60;99.90
14093;DHT22;7123;49.468;10.992;2022-08-20T10:52:56;22.60;99.90
14093;DHT22;7123;49.468;10.992;2022-08-20T10:55:23;22.70;99.90
14093;DHT22;7123;49.468;10.992;2022-08-20T10:57:50;22.70;99.90
14093;DHT22;7123;49.468;10.992;2022-08-20T11:00:17;22.70;99.90
14093;DHT22;7123;49.468;10.992;2022-08-20T11:02:44;22.70;99.90
14093;DHT22;7123;49.468;10.992;2022-08-20T11:05:11;22.70;99.90
14093;DHT22;7123;49.468;10.992;2022-08-20T11:07:40;22.70;99.90
14093;DHT22;7123;49.468;10.992;2022-08-20T11:10:26;22.80;99.90
14093;DHT22;7123;49.468;10.992;2022-08-20T11:12:54;22.90;99.90
14093;DHT22;7123;49.468;10.992;2022-08-20T11:15:21;22.90;99.90
14093;DHT22;7123;49.468;10.992;2022-08-20T11:17:48;23.00;99.90
14093;DHT22;7123;49.468;10.992;2022-08-20T11:20:19;23.10;99.90
14093;DHT22;7123;49.468;10.992;2022-08-20T11:22:46;23.30;99.90
14093;DHT22;7123;49.468;10.992;2022-08-20T11:25:13;23.30;99.90
14093;DHT22;7123;49.468;10.992;2022-08-20T11:27:42;23.30;99.90
14093;DHT22;7123;49.468;10.992;2022-08-20T11:30:13;23.20;99.90
14093;DHT22;7123;49.468;10.992;2022-08-20T11:32:41;23.40;99.90
14093;DHT22;7123;49.468;10.992;2022-08-20T11:35:09;23.40;99.90
14093;DHT22;7123;49.468;10.992;2022-08-20T11:37:57;23.40;99.90
14093;DHT22;7123;49.468;10.992;2022-08-20T11:40:25;23.50;99.90
14093;DHT22;7123;49.468;10.992;2022-08-20T11:42:52;23.60;99.90
14093;DHT22;7123;49.468;10.992;2022-08-20T11:45:39;23.60;99.90
14093;DHT22;7123;49.468;10.992;2022-08-20T11:48:06;23.50;99.90
14093;DHT22;7123;49.468;10.992;2022-08-20T11:50:32;23.50;99.90
14093;DHT22;7123;49.468;10.992;2022-08-20T11:52:59;23.50;99.90
14093;DHT22;7123;49.468;10.992;2022-08-20T11:55:27;23.50;99.90
14093;DHT22;7123;49.468;10.992;2022-08-20T11:57:57;23.50;99.90
14093;DHT22;7123;49.468;10.992;2022-08-20T12:00:27;23.60;99.90
14093;DHT22;7123;49.468;10.992;2022-08-20T12:03:02;23.50;99.90
14093;DHT22;7123;49.468;10.992;2022-08-20T12:05:31;23.50;99.90
14093;DHT22;7123;49.468;10.992;2022-08-20T12:08:01;23.60;99.90
14093;DHT22;7123;49.468;10.992;2022-08-20T12:10:29;23.50;99.90
14093;DHT22;7123;49.468;10.992;2022-08-20T12:12:56;23.60;99.90
14093;DHT22;7123;49.468;10.992;2022-08-20T12:15:24;23.50;99.90
14093;DHT22;7123;49.468;10.992;2022-08-20T12:17:53;23.50;99.90
14093;DHT22;7123;49.468;10.992;2022-08-20T12:20:21;23.50;99.90
14093;DHT22;7123;49.468;10.992;2022-08-20T12:22:48;23.40;99.90
14093;DHT22;7123;49.468;10.992;2022-08-20T12:25:15;23.30;99.90
14093;DHT22;7123;49.468;10.992;2022-08-20T12:27:42;23.30;99.90
14093;DHT22;7123;49.468;10.992;2022-08-20T12:30:14;23.40;99.90
14093;DHT22;7123;49.468;10.992;2022-08-20T12:32:41;23.40;99.90
14093;DHT22;7123;49.468;10.992;2022-08-20T12:35:09;23.40;99.90
14093;DHT22;7123;49.468;10.992;2022-08-20T12:37:37;23.40;99.90
14093;DHT22;7123;49.468;10.992;2022-08-20T12:40:08;23.40;99.90
14093;DHT22;7123;49.468;10.992;2022-08-20T12:42:36;23.10;99.90
14093;DHT22;7123;49.468;10.992;2022-08-20T12:45:04;22.80;99.90
14093;DHT22;7123;49.468;10.992;2022-08-20T12:47:34;22.60;99.90
14093;DHT22;7123;49.468;10.992;2022-08-20T12:52:33;22.30;99.90
14093;DHT22;7123;49.468;10.992;2022-08-20T12:55:00;22.30;99.90
14093;DHT22;7123;49.468;10.992;2022-08-20T12:57:29;22.30;99.90
14093;DHT22;7123;49.468;10.992;2022-08-20T12:59:59;22.20;99.90
14093;DHT22;7123;49.468;10.992;2022-08-20T13:02:29;22.20;99.90
14093;DHT22;7123;49.468;10.992;2022-08-20T13:04:56;22.20;99.90
14093;DHT22;7123;49.468;10.992;2022-08-20T13:07:28;22.00;99.90
14093;DHT22;7123;49.468;10.992;2022-08-20T13:09:54;21.80;99.90
14093;DHT22;7123;49.468;10.992;2022-08-20T13:12:21;21.60;99.90
14093;DHT22;7123;49.468;10.992;2022-08-20T13:14:48;21.50;99.90
14093;DHT22;7123;49.468;10.992;2022-08-20T13:17:16;21.50;99.90
14093;DHT22;7123;49.468;10.992;2022-08-20T13:19:44;21.50;99.90
14093;DHT22;7123;49.468;10.992;2022-08-20T13:22:12;21.60;99.90
14093;DHT22;7123;49.468;10.992;2022-08-20T13:24:40;21.80;99.90
14093;DHT22;7123;49.468;10.992;2022-08-20T13:27:15;21.90;99.90
14093;DHT22;7123;49.468;10.992;2022-08-20T13:29:50;22.00;99.90
14093;DHT22;7123;49.468;10.992;2022-08-20T13:32:23;22.20;99.90
14093;DHT22;7123;49.468;10.992;2022-08-20T13:34:50;22.40;99.90
14093;DHT22;7123;49.468;10.992;2022-08-20T13:37:20;22.40;99.90
14093;DHT22;7123;49.468;10.992;2022-08-20T13:39:51;22.50;99.90
14093;DHT22;7123;49.468;10.992;2022-08-20T13:42:18;22.60;99.90
14093;DHT22;7123;49.468;10.992;2022-08-20T13:44:45;22.70;99.90
14093;DHT22;7123;49.468;10.992;2022-08-20T13:49:47;22.80;99.90
14093;DHT22;7123;49.468;10.992;2022-08-20T13:52:14;22.90;99.90
14093;DHT22;7123;49.468;10.992;2022-08-20T13:54:42;23.00;99.90
14093;DHT22;7123;49.468;10.992;2022-08-20T13:57:15;23.00;99.90
14093;DHT22;7123;49.468;10.992;2022-08-20T13:59:44;22.90;99.90
14093;DHT22;7123;49.468;10.992;2022-08-20T14:02:13;22.80;99.90
14093;DHT22;7123;49.468;10.992;2022-08-20T14:04:40;22.80;99.90
14093;DHT22;7123;49.468;10.992;2022-08-20T14:07:19;22.80;99.90
14093;DHT22;7123;49.468;10.992;2022-08-20T14:09:50;22.80;99.90
14093;DHT22;7123;49.468;10.992;2022-08-20T14:12:17;22.80;99.90
14093;DHT22;7123;49.468;10.992;2022-08-20T14:14:44;22.80;99.90
14093;DHT22;7123;49.468;10.992;2022-08-20T14:17:19;22.80;99.90
14093;DHT22;7123;49.468;10.992;2022-08-20T14:19:48;22.80;99.90
14093;DHT22;7123;49.468;10.992;2022-08-20T14:22:15;22.80;99.90
14093;DHT22;7123;49.468;10.992;2022-08-20T14:24:47;22.70;99.90
14093;DHT22;7123;49.468;10.992;2022-08-20T14:27:15;22.70;99.90
14093;DHT22;7123;49.468;10.992;2022-08-20T14:29:44;22.70;99.90
14093;DHT22;7123;49.468;10.992;2022-08-20T14:32:11;22.50;99.90
14093;DHT22;7123;49.468;10.992;2022-08-20T14:34:38;22.40;99.90
14093;DHT22;7123;49.468;10.992;2022-08-20T14:37:36;22.30;99.90
14093;DHT22;7123;49.468;10.992;2022-08-20T14:40:06;22.40;99.90
14093;DHT22;7123;49.468;10.992;2022-08-20T14:42:35;22.40;99.90
14093;DHT22;7123;49.468;10.992;2022-08-20T14:45:04;22.20;99.90
14093;DHT22;7123;49.468;10.992;2022-08-20T14:47:40;22.30;99.90
14093;DHT22;7123;49.468;10.992;2022-08-20T14:50:14;22.50;99.90
14093;DHT22;7123;49.468;10.992;2022-08-20T14:52:41;22.80;99.90
14093;DHT22;7123;49.468;10.992;2022-08-20T14:55:16;22.90;99.90
14093;DHT22;7123;49.468;10.992;2022-08-20T14:57:43;22.90;99.90
14093;DHT22;7123;49.468;10.992;2022-08-20T15:00:14;23.00;99.90
14093;DHT22;7123;49.468;10.992;2022-08-20T15:02:44;22.90;99.90
14093;DHT22;7123;49.468;10.992;2022-08-20T15:05:11;22.90;99.90
14093;DHT22;7123;49.468;10.992;2022-08-20T15:07:42;23.00;99.90
14093;DHT22;7123;49.468;10.992;2022-08-20T15:10:22;22.90;99.90
14093;DHT22;7123;49.468;10.992;2022-08-20T15:12:48;22.80;99.90
14093;DHT22;7123;49.468;10.992;2022-08-20T15:15:16;22.80;99.90
14093;DHT22;7123;49.468;10.992;2022-08-20T15:17:46;22.70;99.90
14093;DHT22;7123;49.468;10.992;2022-08-20T15:20:14;22.80;99.90
14093;DHT22;7123;49.468;10.992;2022-08-20T15:22:47;22.80;99.90
14093;DHT22;7123;49.468;10.992;2022-08-20T15:25:17;22.80;99.90
14093;DHT22;7123;49.468;10.992;2022-08-20T15:27:45;22.70;99.90
14093;DHT22;7123;49.468;10.992;2022-08-20T15:30:18;22.70;99.90
14093;DHT22;7123;49.468;10.992;2022-08-20T15:32:45;22.60;99.90
14093;DHT22;7123;49.468;10.992;2022-08-20T15:35:17;22.60;99.90
14093;DHT22;7123;49.468;10.992;2022-08-20T15:37:46;22.60;99.90
14093;DHT22;7123;49.468;10.992;2022-08-20T15:40:16;22.60;99.90
14093;DHT22;7123;49.468;10.992;2022-08-20T15:42:43;22.60;99.90
14093;DHT22;7123;49.468;10.992;2022-08-20T15:45:14;22.50;99.90
14093;DHT22;7123;49.468;10.992;2022-08-20T15:48:12;22.50;99.90
14093;DHT22;7123;49.468;10.992;2022-08-20T15:51:21;22.40;99.90
14093;DHT22;7123;49.468;10.992;2022-08-20T15:53:58;22.50;99.90
14093;DHT22;7123;49.468;10.992;2022-08-20T15:56:42;22.50;99.90
14093;DHT22;7123;49.468;10.992;2022-08-20T15:59:30;22.50;99.90